sensor_id;sensor_type;location;lat;lon;timestamp;P1;durP1;ratioP1;P2;durP2;ratioP2
66521;SDS011;53349;53.538;8.584;2024-01-15T00:00:55;12.80;;;1.17;;
66521;SDS011;53349;53.538;8.584;2024-01-15T00:03:20;5.83;;;0.93;;
66521;SDS011;53349;53.538;8.584;2024-01-15T00:05:45;7.70;;;0.90;;
66521;SDS011;53349;53.538;8.584;2024-01-15T00:08:10;9.33;;;1.20;;
66521;SDS011;53349;53.538;8.584;2024-01-15T00:10:37;12.63;;;1.30;;
66521;SDS011;53349;53.538;8.584;2024-01-15T00:13:03;13.30;;;1.13;;
66521;SDS011;53349;53.538;8.584;2024-01-15T00:15:28;7.50;;;0.87;;
66521;SDS011;53349;53.538;8.584;2024-01-15T00:17:53;10.13;;;0.90;;
66521;SDS011;53349;53.538;8.584;2024-01-15T00:20:18;11.37;;;0.93;;
66521;SDS011;53349;53.538;8.584;2024-01-15T00:22:45;7.93;;;0.90;;
66521;SDS011;53349;53.538;8.584;2024-01-15T00:25:10;3.47;;;0.70;;
66521;SDS011;53349;53.538;8.584;2024-01-15T00:27:35;4.80;;;0.70;;
66521;SDS011;53349;53.538;8.584;2024-01-15T00:30:01;5.17;;;0.47;;
66521;SDS011;53349;53.538;8.584;2024-01-15T00:32:27;4.83;;;0.30;;
66521;SDS011;53349;53.538;8.584;2024-01-15T00:34:52;6.43;;;0.82;;
66521;SDS011;53349;53.538;8.584;2024-01-15T00:37:19;6.50;;;0.40;;
66521;SDS011;53349;53.538;8.584;2024-01-15T00:39:49;2.90;;;0.40;;
66521;SDS011;53349;53.538;8.584;2024-01-15T00:42:15;7.17;;;0.60;;
66521;SDS011;53349;53.538;8.584;2024-01-15T00:44:42;5.47;;;0.60;;
66521;SDS011;53349;53.538;8.584;2024-01-15T00:47:08;4.40;;;0.50;;
66521;SDS011;53349;53.538;8.584;2024-01-15T00:49:37;5.70;;;0.50;;
66521;SDS011;53349;53.538;8.584;2024-01-15T00:52:05;3.47;;;0.40;;
66521;SDS011;53349;53.538;8.584;2024-01-15T00:54:32;6.83;;;0.60;;
66521;SDS011;53349;53.538;8.584;2024-01-15T00:56:57;8.82;;;0.73;;
66521;SDS011;53349;53.538;8.584;2024-01-15T00:59:24;8.67;;;0.97;;
66521;SDS011;53349;53.538;8.584;2024-01-15T01:01:50;8.25;;;0.60;;
66521;SDS011;53349;53.538;8.584;2024-01-15T01:04:15;7.13;;;0.67;;
66521;SDS011;53349;53.538;8.584;2024-01-15T01:06:40;8.67;;;1.03;;
66521;SDS011;53349;53.538;8.584;2024-01-15T01:09:06;7.93;;;0.70;;
66521;SDS011;53349;53.538;8.584;2024-01-15T01:11:31;8.30;;;1.10;;
66521;SDS011;53349;53.538;8.584;2024-01-15T01:13:56;10.47;;;1.23;;
66521;SDS011;53349;53.538;8.584;2024-01-15T01:16:21;10.67;;;1.37;;
66521;SDS011;53349;53.538;8.584;2024-01-15T01:18:49;10.23;;;1.60;;
66521;SDS011;53349;53.538;8.584;2024-01-15T01:21:16;10.20;;;0.90;;
66521;SDS011;53349;53.538;8.584;2024-01-15T01:23:42;8.30;;;0.88;;
66521;SDS011;53349;53.538;8.584;2024-01-15T01:26:07;8.67;;;0.90;;
66521;SDS011;53349;53.538;8.584;2024-01-15T01:28:32;6.23;;;0.80;;
66521;SDS011;53349;53.538;8.584;2024-01-15T01:31:00;5.67;;;0.80;;
66521;SDS011;53349;53.538;8.584;2024-01-15T01:33:25;12.23;;;1.25;;
66521;SDS011;53349;53.538;8.584;2024-01-15T01:35:51;10.17;;;1.20;;
66521;SDS011;53349;53.538;8.584;2024-01-15T01:38:16;12.63;;;1.38;;
66521;SDS011;53349;53.538;8.584;2024-01-15T01:40:43;6.03;;;0.98;;
66521;SDS011;53349;53.538;8.584;2024-01-15T01:43:08;7.93;;;0.88;;
66521;SDS011;53349;53.538;8.584;2024-01-15T01:45:35;7.78;;;1.05;;
66521;SDS011;53349;53.538;8.584;2024-01-15T01:48:01;9.87;;;0.93;;
66521;SDS011;53349;53.538;8.584;2024-01-15T01:50:28;8.70;;;1.13;;
66521;SDS011;53349;53.538;8.584;2024-01-15T01:52:54;6.50;;;1.07;;
66521;SDS011;53349;53.538;8.584;2024-01-15T01:55:19;9.07;;;1.02;;
66521;SDS011;53349;53.538;8.584;2024-01-15T01:57:45;10.10;;;0.97;;
66521;SDS011;53349;53.538;8.584;2024-01-15T02:00:11;8.68;;;0.85;;
66521;SDS011;53349;53.538;8.584;2024-01-15T02:02:36;6.37;;;0.70;;
66521;SDS011;53349;53.538;8.584;2024-01-15T02:05:03;6.75;;;0.90;;
66521;SDS011;53349;53.538;8.584;2024-01-15T02:07:29;12.25;;;0.80;;
66521;SDS011;53349;53.538;8.584;2024-01-15T02:09:55;4.80;;;0.93;;
66521;SDS011;53349;53.538;8.584;2024-01-15T02:12:20;6.37;;;0.87;;
66521;SDS011;53349;53.538;8.584;2024-01-15T02:14:47;5.43;;;0.93;;
66521;SDS011;53349;53.538;8.584;2024-01-15T02:17:13;7.63;;;1.20;;
66521;SDS011;53349;53.538;8.584;2024-01-15T02:19:40;10.47;;;1.47;;
66521;SDS011;53349;53.538;8.584;2024-01-15T02:22:05;14.95;;;1.23;;
66521;SDS011;53349;53.538;8.584;2024-01-15T02:24:39;6.72;;;1.20;;
66521;SDS011;53349;53.538;8.584;2024-01-15T02:27:04;5.03;;;0.70;;
66521;SDS011;53349;53.538;8.584;2024-01-15T02:29:30;10.87;;;1.00;;
66521;SDS011;53349;53.538;8.584;2024-01-15T02:31:55;6.87;;;0.87;;
66521;SDS011;53349;53.538;8.584;2024-01-15T02:34:20;12.23;;;1.40;;
66521;SDS011;53349;53.538;8.584;2024-01-15T02:36:45;10.47;;;1.10;;
66521;SDS011;53349;53.538;8.584;2024-01-15T02:39:11;8.07;;;0.80;;
66521;SDS011;53349;53.538;8.584;2024-01-15T02:41:40;10.23;;;0.90;;
66521;SDS011;53349;53.538;8.584;2024-01-15T02:44:08;7.95;;;1.10;;
66521;SDS011;53349;53.538;8.584;2024-01-15T02:46:36;8.38;;;0.90;;
66521;SDS011;53349;53.538;8.584;2024-01-15T02:49:04;9.63;;;0.93;;
66521;SDS011;53349;53.538;8.584;2024-01-15T02:51:30;8.70;;;1.10;;
66521;SDS011;53349;53.538;8.584;2024-01-15T02:53:56;8.68;;;1.10;;
66521;SDS011;53349;53.538;8.584;2024-01-15T02:56:22;15.17;;;1.40;;
66521;SDS011;53349;53.538;8.584;2024-01-15T02:58:49;12.13;;;2.13;;
66521;SDS011;53349;53.538;8.584;2024-01-15T03:01:14;14.80;;;1.30;;
66521;SDS011;53349;53.538;8.584;2024-01-15T03:03:40;13.03;;;1.83;;
66521;SDS011;53349;53.538;8.584;2024-01-15T03:06:05;15.10;;;1.90;;
66521;SDS011;53349;53.538;8.584;2024-01-15T03:08:31;15.87;;;2.40;;
66521;SDS011;53349;53.538;8.584;2024-01-15T03:10:57;19.93;;;1.80;;
66521;SDS011;53349;53.538;8.584;2024-01-15T03:13:24;17.88;;;1.70;;
66521;SDS011;53349;53.538;8.584;2024-01-15T03:15:49;16.80;;;2.30;;
66521;SDS011;53349;53.538;8.584;2024-01-15T03:18:15;15.27;;;2.47;;
66521;SDS011;53349;53.538;8.584;2024-01-15T03:20:41;19.13;;;2.10;;
66521;SDS011;53349;53.538;8.584;2024-01-15T03:23:07;14.80;;;2.63;;
66521;SDS011;53349;53.538;8.584;2024-01-15T03:25:33;15.17;;;1.77;;
66521;SDS011;53349;53.538;8.584;2024-01-15T03:27:58;11.38;;;1.48;;
66521;SDS011;53349;53.538;8.584;2024-01-15T03:30:25;13.67;;;1.73;;
66521;SDS011;53349;53.538;8.584;2024-01-15T03:32:50;7.67;;;1.10;;
66521;SDS011;53349;53.538;8.584;2024-01-15T03:35:17;9.77;;;1.52;;
66521;SDS011;53349;53.538;8.584;2024-01-15T03:37:42;9.43;;;0.90;;
66521;SDS011;53349;53.538;8.584;2024-01-15T03:40:07;13.10;;;1.73;;
66521;SDS011;53349;53.538;8.584;2024-01-15T03:42:33;6.45;;;1.00;;
66521;SDS011;53349;53.538;8.584;2024-01-15T03:44:58;6.63;;;0.83;;
66521;SDS011;53349;53.538;8.584;2024-01-15T03:47:26;6.57;;;0.75;;
66521;SDS011;53349;53.538;8.584;2024-01-15T03:49:53;7.10;;;0.80;;
66521;SDS011;53349;53.538;8.584;2024-01-15T03:52:18;9.18;;;1.10;;
66521;SDS011;53349;53.538;8.584;2024-01-15T03:54:44;8.40;;;0.73;;
66521;SDS011;53349;53.538;8.584;2024-01-15T03:57:09;6.90;;;0.80;;
66521;SDS011;53349;53.538;8.584;2024-01-15T03:59:36;5.17;;;0.80;;
66521;SDS011;53349;53.538;8.584;2024-01-15T04:02:02;7.25;;;0.80;;
66521;SDS011;53349;53.538;8.584;2024-01-15T04:04:29;9.18;;;1.20;;
66521;SDS011;53349;53.538;8.584;2024-01-15T04:06:55;8.67;;;1.37;;
66521;SDS011;53349;53.538;8.584;2024-01-15T04:09:20;10.40;;;1.30;;
66521;SDS011;53349;53.538;8.584;2024-01-15T04:11:47;9.53;;;1.43;;
66521;SDS011;53349;53.538;8.584;2024-01-15T04:14:13;13.55;;;1.50;;
66521;SDS011;53349;53.538;8.584;2024-01-15T04:16:39;11.73;;;1.13;;
66521;SDS011;53349;53.538;8.584;2024-01-15T04:19:05;10.13;;;1.10;;
66521;SDS011;53349;53.538;8.584;2024-01-15T04:21:32;10.57;;;1.42;;
66521;SDS011;53349;53.538;8.584;2024-01-15T04:23:57;13.00;;;1.45;;
66521;SDS011;53349;53.538;8.584;2024-01-15T04:26:22;15.20;;;2.13;;
66521;SDS011;53349;53.538;8.584;2024-01-15T04:28:47;10.17;;;1.00;;
66521;SDS011;53349;53.538;8.584;2024-01-15T04:31:23;6.90;;;1.00;;
66521;SDS011;53349;53.538;8.584;2024-01-15T04:33:50;9.30;;;1.25;;
66521;SDS011;53349;53.538;8.584;2024-01-15T04:36:18;15.27;;;1.42;;
66521;SDS011;53349;53.538;8.584;2024-01-15T04:38:44;11.25;;;1.63;;
66521;SDS011;53349;53.538;8.584;2024-01-15T04:41:13;9.40;;;0.93;;
66521;SDS011;53349;53.538;8.584;2024-01-15T04:43:39;12.13;;;0.98;;
66521;SDS011;53349;53.538;8.584;2024-01-15T04:46:06;6.72;;;1.08;;
66521;SDS011;53349;53.538;8.584;2024-01-15T04:48:33;4.17;;;0.57;;
66521;SDS011;53349;53.538;8.584;2024-01-15T04:50:59;5.67;;;0.70;;
66521;SDS011;53349;53.538;8.584;2024-01-15T04:53:26;2.50;;;0.25;;
66521;SDS011;53349;53.538;8.584;2024-01-15T04:55:51;9.60;;;0.40;;
66521;SDS011;53349;53.538;8.584;2024-01-15T04:58:37;8.93;;;0.50;;
66521;SDS011;53349;53.538;8.584;2024-01-15T05:01:03;7.47;;;0.88;;
66521;SDS011;53349;53.538;8.584;2024-01-15T05:03:28;5.23;;;0.67;;
66521;SDS011;53349;53.538;8.584;2024-01-15T05:05:56;6.63;;;0.90;;
66521;SDS011;53349;53.538;8.584;2024-01-15T05:08:22;4.35;;;0.77;;
66521;SDS011;53349;53.538;8.584;2024-01-15T05:10:49;4.07;;;0.50;;
66521;SDS011;53349;53.538;8.584;2024-01-15T05:13:14;5.00;;;0.50;;
66521;SDS011;53349;53.538;8.584;2024-01-15T05:15:40;3.23;;;0.60;;
66521;SDS011;53349;53.538;8.584;2024-01-15T05:18:08;9.82;;;1.00;;
66521;SDS011;53349;53.538;8.584;2024-01-15T05:20:34;6.43;;;1.13;;
66521;SDS011;53349;53.538;8.584;2024-01-15T05:23:00;6.40;;;1.10;;
66521;SDS011;53349;53.538;8.584;2024-01-15T05:25:25;7.37;;;0.97;;
66521;SDS011;53349;53.538;8.584;2024-01-15T05:27:51;9.80;;;0.73;;
66521;SDS011;53349;53.538;8.584;2024-01-15T05:30:16;5.78;;;0.50;;
66521;SDS011;53349;53.538;8.584;2024-01-15T05:32:42;5.55;;;0.75;;
66521;SDS011;53349;53.538;8.584;2024-01-15T05:35:09;8.38;;;0.73;;
66521;SDS011;53349;53.538;8.584;2024-01-15T05:37:35;7.43;;;1.10;;
66521;SDS011;53349;53.538;8.584;2024-01-15T05:40:01;8.63;;;1.20;;
66521;SDS011;53349;53.538;8.584;2024-01-15T05:42:26;9.37;;;1.20;;
66521;SDS011;53349;53.538;8.584;2024-01-15T05:44:53;8.43;;;1.33;;
66521;SDS011;53349;53.538;8.584;2024-01-15T05:47:18;13.88;;;1.95;;
66521;SDS011;53349;53.538;8.584;2024-01-15T05:49:43;7.63;;;1.20;;
66521;SDS011;53349;53.538;8.584;2024-01-15T05:52:08;6.63;;;1.27;;
66521;SDS011;53349;53.538;8.584;2024-01-15T05:54:34;10.07;;;1.10;;
66521;SDS011;53349;53.538;8.584;2024-01-15T05:57:00;8.43;;;1.00;;
66521;SDS011;53349;53.538;8.584;2024-01-15T05:59:25;9.90;;;1.30;;
66521;SDS011;53349;53.538;8.584;2024-01-15T06:01:50;10.03;;;1.00;;
66521;SDS011;53349;53.538;8.584;2024-01-15T06:04:16;8.53;;;1.00;;
66521;SDS011;53349;53.538;8.584;2024-01-15T06:06:41;9.83;;;1.03;;
66521;SDS011;53349;53.538;8.584;2024-01-15T06:09:06;10.87;;;1.17;;
66521;SDS011;53349;53.538;8.584;2024-01-15T06:11:31;10.90;;;1.80;;
66521;SDS011;53349;53.538;8.584;2024-01-15T06:13:58;8.00;;;1.00;;
66521;SDS011;53349;53.538;8.584;2024-01-15T06:16:24;5.72;;;0.88;;
66521;SDS011;53349;53.538;8.584;2024-01-15T06:18:52;11.50;;;1.17;;
66521;SDS011;53349;53.538;8.584;2024-01-15T06:21:20;4.80;;;0.83;;
66521;SDS011;53349;53.538;8.584;2024-01-15T06:23:49;14.52;;;1.15;;
66521;SDS011;53349;53.538;8.584;2024-01-15T06:26:14;6.40;;;0.83;;
66521;SDS011;53349;53.538;8.584;2024-01-15T06:28:43;9.30;;;1.00;;
66521;SDS011;53349;53.538;8.584;2024-01-15T06:31:08;10.10;;;0.98;;
66521;SDS011;53349;53.538;8.584;2024-01-15T06:33:34;9.20;;;1.27;;
66521;SDS011;53349;53.538;8.584;2024-01-15T06:36:00;8.30;;;0.90;;
66521;SDS011;53349;53.538;8.584;2024-01-15T06:38:26;7.30;;;1.08;;
66521;SDS011;53349;53.538;8.584;2024-01-15T06:40:51;9.27;;;1.00;;
66521;SDS011;53349;53.538;8.584;2024-01-15T06:43:17;8.93;;;1.00;;
66521;SDS011;53349;53.538;8.584;2024-01-15T06:45:44;7.30;;;0.98;;
66521;SDS011;53349;53.538;8.584;2024-01-15T06:48:10;5.18;;;1.02;;
66521;SDS011;53349;53.538;8.584;2024-01-15T06:50:35;3.17;;;0.90;;
66521;SDS011;53349;53.538;8.584;2024-01-15T06:53:01;5.17;;;0.50;;
66521;SDS011;53349;53.538;8.584;2024-01-15T06:55:27;4.35;;;0.60;;
66521;SDS011;53349;53.538;8.584;2024-01-15T06:57:53;6.97;;;0.70;;
66521;SDS011;53349;53.538;8.584;2024-01-15T07:00:19;10.37;;;1.17;;
66521;SDS011;53349;53.538;8.584;2024-01-15T07:02:45;8.03;;;1.07;;
66521;SDS011;53349;53.538;8.584;2024-01-15T07:05:11;6.05;;;0.88;;
66521;SDS011;53349;53.538;8.584;2024-01-15T07:07:37;6.25;;;0.60;;
66521;SDS011;53349;53.538;8.584;2024-01-15T07:10:07;3.97;;;0.40;;
66521;SDS011;53349;53.538;8.584;2024-01-15T07:12:32;7.30;;;0.90;;
66521;SDS011;53349;53.538;8.584;2024-01-15T07:14:57;8.70;;;1.00;;
66521;SDS011;53349;53.538;8.584;2024-01-15T07:17:23;5.93;;;0.80;;
66521;SDS011;53349;53.538;8.584;2024-01-15T07:19:49;7.43;;;0.73;;
66521;SDS011;53349;53.538;8.584;2024-01-15T07:22:16;4.00;;;0.50;;
66521;SDS011;53349;53.538;8.584;2024-01-15T07:24:43;5.18;;;0.55;;
66521;SDS011;53349;53.538;8.584;2024-01-15T07:27:08;3.97;;;0.65;;
66521;SDS011;53349;53.538;8.584;2024-01-15T07:29:35;7.10;;;0.60;;
66521;SDS011;53349;53.538;8.584;2024-01-15T07:32:00;7.35;;;0.68;;
66521;SDS011;53349;53.538;8.584;2024-01-15T07:34:26;6.67;;;0.67;;
66521;SDS011;53349;53.538;8.584;2024-01-15T07:36:53;6.95;;;0.60;;
66521;SDS011;53349;53.538;8.584;2024-01-15T07:39:20;4.97;;;0.60;;
66521;SDS011;53349;53.538;8.584;2024-01-15T07:41:46;6.10;;;1.08;;
66521;SDS011;53349;53.538;8.584;2024-01-15T07:44:11;6.17;;;0.63;;
66521;SDS011;53349;53.538;8.584;2024-01-15T07:46:37;4.57;;;0.80;;
66521;SDS011;53349;53.538;8.584;2024-01-15T07:49:03;5.22;;;0.90;;
66521;SDS011;53349;53.538;8.584;2024-01-15T07:51:29;3.37;;;0.50;;
66521;SDS011;53349;53.538;8.584;2024-01-15T07:53:58;6.63;;;0.60;;
66521;SDS011;53349;53.538;8.584;2024-01-15T07:56:24;6.82;;;0.70;;
66521;SDS011;53349;53.538;8.584;2024-01-15T07:58:50;8.37;;;0.60;;
66521;SDS011;53349;53.538;8.584;2024-01-15T08:01:17;7.88;;;1.13;;
66521;SDS011;53349;53.538;8.584;2024-01-15T08:03:42;6.72;;;0.70;;
66521;SDS011;53349;53.538;8.584;2024-01-15T08:06:07;2.43;;;0.50;;
66521;SDS011;53349;53.538;8.584;2024-01-15T08:08:34;12.20;;;1.03;;
66521;SDS011;53349;53.538;8.584;2024-01-15T08:11:01;3.95;;;0.40;;
66521;SDS011;53349;53.538;8.584;2024-01-15T08:13:28;3.87;;;0.40;;
66521;SDS011;53349;53.538;8.584;2024-01-15T08:15:55;3.50;;;0.50;;
66521;SDS011;53349;53.538;8.584;2024-01-15T08:18:20;4.80;;;0.40;;
66521;SDS011;53349;53.538;8.584;2024-01-15T08:20:46;5.10;;;0.40;;
66521;SDS011;53349;53.538;8.584;2024-01-15T08:23:14;2.35;;;0.32;;
66521;SDS011;53349;53.538;8.584;2024-01-15T08:25:41;2.37;;;0.33;;
66521;SDS011;53349;53.538;8.584;2024-01-15T08:28:06;5.78;;;0.60;;
66521;SDS011;53349;53.538;8.584;2024-01-15T08:30:32;7.00;;;0.67;;
66521;SDS011;53349;53.538;8.584;2024-01-15T08:32:57;5.87;;;0.50;;
66521;SDS011;53349;53.538;8.584;2024-01-15T08:35:23;7.23;;;0.87;;
66521;SDS011;53349;53.538;8.584;2024-01-15T08:37:49;4.32;;;0.77;;
66521;SDS011;53349;53.538;8.584;2024-01-15T08:40:14;5.37;;;0.97;;
66521;SDS011;53349;53.538;8.584;2024-01-15T08:42:41;4.55;;;0.70;;
66521;SDS011;53349;53.538;8.584;2024-01-15T08:45:07;7.63;;;0.87;;
66521;SDS011;53349;53.538;8.584;2024-01-15T08:47:33;4.00;;;0.50;;
66521;SDS011;53349;53.538;8.584;2024-01-15T08:50:01;4.50;;;0.70;;
66521;SDS011;53349;53.538;8.584;2024-01-15T08:52:26;7.05;;;1.00;;
66521;SDS011;53349;53.538;8.584;2024-01-15T08:54:52;10.40;;;1.17;;
66521;SDS011;53349;53.538;8.584;2024-01-15T08:57:18;8.97;;;0.93;;
66521;SDS011;53349;53.538;8.584;2024-01-15T08:59:43;10.18;;;0.90;;
66521;SDS011;53349;53.538;8.584;2024-01-15T09:02:10;10.57;;;1.00;;
66521;SDS011;53349;53.538;8.584;2024-01-15T09:04:36;12.15;;;2.20;;
66521;SDS011;53349;53.538;8.584;2024-01-15T09:07:06;9.60;;;2.50;;
66521;SDS011;53349;53.538;8.584;2024-01-15T09:09:33;8.90;;;1.10;;
66521;SDS011;53349;53.538;8.584;2024-01-15T09:11:58;5.97;;;0.95;;
66521;SDS011;53349;53.538;8.584;2024-01-15T09:14:27;8.55;;;1.13;;
66521;SDS011;53349;53.538;8.584;2024-01-15T09:16:53;6.80;;;0.80;;
66521;SDS011;53349;53.538;8.584;2024-01-15T09:19:19;8.03;;;0.87;;
66521;SDS011;53349;53.538;8.584;2024-01-15T09:21:47;5.72;;;0.90;;
66521;SDS011;53349;53.538;8.584;2024-01-15T09:24:12;5.13;;;0.80;;
66521;SDS011;53349;53.538;8.584;2024-01-15T09:26:38;7.27;;;0.90;;
66521;SDS011;53349;53.538;8.584;2024-01-15T09:29:04;8.13;;;0.80;;
66521;SDS011;53349;53.538;8.584;2024-01-15T09:31:30;6.87;;;1.03;;
66521;SDS011;53349;53.538;8.584;2024-01-15T09:33:55;7.13;;;1.10;;
66521;SDS011;53349;53.538;8.584;2024-01-15T09:36:20;10.17;;;1.57;;
66521;SDS011;53349;53.538;8.584;2024-01-15T09:38:45;7.37;;;1.17;;
66521;SDS011;53349;53.538;8.584;2024-01-15T09:41:10;7.37;;;1.43;;
66521;SDS011;53349;53.538;8.584;2024-01-15T09:43:38;4.03;;;0.87;;
66521;SDS011;53349;53.538;8.584;2024-01-15T09:46:03;5.93;;;0.73;;
66521;SDS011;53349;53.538;8.584;2024-01-15T09:48:31;8.68;;;0.70;;
66521;SDS011;53349;53.538;8.584;2024-01-15T09:51:03;3.30;;;0.73;;
66521;SDS011;53349;53.538;8.584;2024-01-15T09:53:29;6.32;;;1.23;;
66521;SDS011;53349;53.538;8.584;2024-01-15T09:55:57;5.37;;;1.37;;
66521;SDS011;53349;53.538;8.584;2024-01-15T09:58:23;8.70;;;1.35;;
66521;SDS011;53349;53.538;8.584;2024-01-15T10:00:49;10.00;;;0.80;;
66521;SDS011;53349;53.538;8.584;2024-01-15T10:03:16;5.18;;;0.82;;
66521;SDS011;53349;53.538;8.584;2024-01-15T10:05:42;2.67;;;0.50;;
66521;SDS011;53349;53.538;8.584;2024-01-15T10:08:08;5.43;;;1.10;;
66521;SDS011;53349;53.538;8.584;2024-01-15T10:10:36;4.83;;;0.60;;
66521;SDS011;53349;53.538;8.584;2024-01-15T10:13:02;4.75;;;0.82;;
66521;SDS011;53349;53.538;8.584;2024-01-15T10:15:33;5.50;;;0.95;;
66521;SDS011;53349;53.538;8.584;2024-01-15T10:17:58;8.02;;;1.60;;
66521;SDS011;53349;53.538;8.584;2024-01-15T10:20:24;6.90;;;1.20;;
66521;SDS011;53349;53.538;8.584;2024-01-15T10:22:50;4.80;;;0.90;;
66521;SDS011;53349;53.538;8.584;2024-01-15T10:25:18;8.07;;;0.70;;
66521;SDS011;53349;53.538;8.584;2024-01-15T10:27:43;4.47;;;0.67;;
66521;SDS011;53349;53.538;8.584;2024-01-15T10:30:09;3.38;;;0.52;;
66521;SDS011;53349;53.538;8.584;2024-01-15T10:32:35;3.67;;;0.60;;
66521;SDS011;53349;53.538;8.584;2024-01-15T10:35:01;3.58;;;0.50;;
66521;SDS011;53349;53.538;8.584;2024-01-15T10:37:32;4.07;;;0.77;;
66521;SDS011;53349;53.538;8.584;2024-01-15T10:39:57;5.32;;;0.90;;
66521;SDS011;53349;53.538;8.584;2024-01-15T10:42:23;1.93;;;0.50;;
66521;SDS011;53349;53.538;8.584;2024-01-15T10:44:48;4.00;;;0.70;;
66521;SDS011;53349;53.538;8.584;2024-01-15T10:47:13;3.77;;;1.20;;
66521;SDS011;53349;53.538;8.584;2024-01-15T10:49:39;2.80;;;0.95;;
66521;SDS011;53349;53.538;8.584;2024-01-15T10:52:05;5.60;;;1.10;;
66521;SDS011;53349;53.538;8.584;2024-01-15T10:54:31;6.50;;;1.60;;
66521;SDS011;53349;53.538;8.584;2024-01-15T10:56:57;7.13;;;2.13;;
66521;SDS011;53349;53.538;8.584;2024-01-15T10:59:25;5.25;;;1.80;;
66521;SDS011;53349;53.538;8.584;2024-01-15T11:01:52;7.35;;;2.25;;
66521;SDS011;53349;53.538;8.584;2024-01-15T11:04:17;4.15;;;1.30;;
66521;SDS011;53349;53.538;8.584;2024-01-15T11:06:44;3.83;;;1.20;;
66521;SDS011;53349;53.538;8.584;2024-01-15T11:09:13;5.80;;;1.00;;
66521;SDS011;53349;53.538;8.584;2024-01-15T11:11:42;5.37;;;1.00;;
66521;SDS011;53349;53.538;8.584;2024-01-15T11:14:08;10.63;;;1.05;;
66521;SDS011;53349;53.538;8.584;2024-01-15T11:17:08;6.60;;;0.73;;
66521;SDS011;53349;53.538;8.584;2024-01-15T11:19:35;8.18;;;1.30;;
66521;SDS011;53349;53.538;8.584;2024-01-15T11:22:02;8.02;;;1.67;;
66521;SDS011;53349;53.538;8.584;2024-01-15T11:24:40;9.45;;;1.48;;
66521;SDS011;53349;53.538;8.584;2024-01-15T11:27:06;6.20;;;0.90;;
66521;SDS011;53349;53.538;8.584;2024-01-15T11:29:36;6.57;;;1.30;;
66521;SDS011;53349;53.538;8.584;2024-01-15T11:32:03;6.20;;;0.98;;
66521;SDS011;53349;53.538;8.584;2024-01-15T11:37:12;5.38;;;0.73;;
66521;SDS011;53349;53.538;8.584;2024-01-15T11:39:41;4.40;;;0.70;;
66521;SDS011;53349;53.538;8.584;2024-01-15T11:42:06;3.75;;;0.75;;
66521;SDS011;53349;53.538;8.584;2024-01-15T11:44:32;6.70;;;1.00;;
66521;SDS011;53349;53.538;8.584;2024-01-15T11:46:58;6.77;;;0.80;;
66521;SDS011;53349;53.538;8.584;2024-01-15T11:52:14;6.97;;;0.98;;
66521;SDS011;53349;53.538;8.584;2024-01-15T11:54:41;5.23;;;0.93;;
66521;SDS011;53349;53.538;8.584;2024-01-15T11:57:13;7.72;;;0.85;;
66521;SDS011;53349;53.538;8.584;2024-01-15T11:59:42;5.68;;;0.90;;
66521;SDS011;53349;53.538;8.584;2024-01-15T12:02:07;4.07;;;0.60;;
66521;SDS011;53349;53.538;8.584;2024-01-15T12:04:32;3.80;;;0.67;;
66521;SDS011;53349;53.538;8.584;2024-01-15T12:06:58;3.27;;;0.67;;
66521;SDS011;53349;53.538;8.584;2024-01-15T12:09:23;5.63;;;0.80;;
66521;SDS011;53349;53.538;8.584;2024-01-15T12:11:50;3.60;;;0.87;;
66521;SDS011;53349;53.538;8.584;2024-01-15T12:14:16;5.35;;;1.10;;
66521;SDS011;53349;53.538;8.584;2024-01-15T12:16:42;4.90;;;1.07;;
66521;SDS011;53349;53.538;8.584;2024-01-15T12:19:08;5.03;;;1.38;;
66521;SDS011;53349;53.538;8.584;2024-01-15T12:21:33;4.60;;;1.20;;
66521;SDS011;53349;53.538;8.584;2024-01-15T12:23:58;3.47;;;1.10;;
66521;SDS011;53349;53.538;8.584;2024-01-15T12:26:24;2.47;;;0.80;;
66521;SDS011;53349;53.538;8.584;2024-01-15T12:28:55;3.80;;;0.95;;
66521;SDS011;53349;53.538;8.584;2024-01-15T12:31:20;4.07;;;0.70;;
66521;SDS011;53349;53.538;8.584;2024-01-15T12:33:45;2.43;;;0.70;;
66521;SDS011;53349;53.538;8.584;2024-01-15T12:36:12;5.47;;;0.80;;
66521;SDS011;53349;53.538;8.584;2024-01-15T12:38:38;2.95;;;0.90;;
66521;SDS011;53349;53.538;8.584;2024-01-15T12:41:03;3.80;;;1.40;;
66521;SDS011;53349;53.538;8.584;2024-01-15T12:43:30;4.43;;;1.53;;
66521;SDS011;53349;53.538;8.584;2024-01-15T12:45:55;5.88;;;1.30;;
66521;SDS011;53349;53.538;8.584;2024-01-15T12:48:21;4.70;;;1.33;;
66521;SDS011;53349;53.538;8.584;2024-01-15T12:50:48;3.73;;;1.10;;
66521;SDS011;53349;53.538;8.584;2024-01-15T12:53:13;6.13;;;1.25;;
66521;SDS011;53349;53.538;8.584;2024-01-15T12:55:39;3.73;;;1.00;;
66521;SDS011;53349;53.538;8.584;2024-01-15T12:58:04;5.00;;;1.20;;
66521;SDS011;53349;53.538;8.584;2024-01-15T13:00:29;4.83;;;1.20;;
66521;SDS011;53349;53.538;8.584;2024-01-15T13:02:55;5.37;;;0.90;;
66521;SDS011;53349;53.538;8.584;2024-01-15T13:05:21;5.75;;;1.10;;
66521;SDS011;53349;53.538;8.584;2024-01-15T13:07:47;5.07;;;0.97;;
66521;SDS011;53349;53.538;8.584;2024-01-15T13:10:12;3.50;;;0.70;;
66521;SDS011;53349;53.538;8.584;2024-01-15T13:12:40;5.10;;;0.77;;
66521;SDS011;53349;53.538;8.584;2024-01-15T13:15:11;4.00;;;0.75;;
66521;SDS011;53349;53.538;8.584;2024-01-15T13:17:36;3.40;;;0.57;;
66521;SDS011;53349;53.538;8.584;2024-01-15T13:20:01;4.00;;;0.53;;
66521;SDS011;53349;53.538;8.584;2024-01-15T13:22:26;5.37;;;0.70;;
66521;SDS011;53349;53.538;8.584;2024-01-15T13:24:53;5.37;;;0.80;;
66521;SDS011;53349;53.538;8.584;2024-01-15T13:27:18;2.67;;;0.70;;
66521;SDS011;53349;53.538;8.584;2024-01-15T13:29:45;6.07;;;0.77;;
66521;SDS011;53349;53.538;8.584;2024-01-15T13:32:10;4.30;;;0.60;;
66521;SDS011;53349;53.538;8.584;2024-01-15T13:34:39;4.30;;;0.70;;
66521;SDS011;53349;53.538;8.584;2024-01-15T13:37:04;3.23;;;0.60;;
66521;SDS011;53349;53.538;8.584;2024-01-15T13:39:31;2.60;;;0.70;;
66521;SDS011;53349;53.538;8.584;2024-01-15T13:41:58;5.03;;;1.10;;
66521;SDS011;53349;53.538;8.584;2024-01-15T13:44:23;4.03;;;1.10;;
66521;SDS011;53349;53.538;8.584;2024-01-15T13:46:49;4.67;;;1.30;;
66521;SDS011;53349;53.538;8.584;2024-01-15T13:49:15;4.72;;;0.90;;
66521;SDS011;53349;53.538;8.584;2024-01-15T13:51:40;4.23;;;0.90;;
66521;SDS011;53349;53.538;8.584;2024-01-15T13:54:05;7.70;;;0.93;;
66521;SDS011;53349;53.538;8.584;2024-01-15T13:56:31;5.97;;;1.00;;
66521;SDS011;53349;53.538;8.584;2024-01-15T13:58:57;2.97;;;0.88;;
66521;SDS011;53349;53.538;8.584;2024-01-15T14:01:24;5.17;;;1.13;;
66521;SDS011;53349;53.538;8.584;2024-01-15T14:03:49;4.70;;;1.50;;
66521;SDS011;53349;53.538;8.584;2024-01-15T14:06:15;8.55;;;1.35;;
66521;SDS011;53349;53.538;8.584;2024-01-15T14:08:41;4.43;;;1.10;;
66521;SDS011;53349;53.538;8.584;2024-01-15T14:11:06;4.82;;;1.08;;
66521;SDS011;53349;53.538;8.584;2024-01-15T14:13:35;3.10;;;1.17;;
66521;SDS011;53349;53.538;8.584;2024-01-15T14:16:20;3.30;;;1.10;;
66521;SDS011;53349;53.538;8.584;2024-01-15T14:18:46;4.03;;;1.13;;
66521;SDS011;53349;53.538;8.584;2024-01-15T14:21:14;7.97;;;1.50;;
66521;SDS011;53349;53.538;8.584;2024-01-15T14:23:40;5.53;;;0.80;;
66521;SDS011;53349;53.538;8.584;2024-01-15T14:26:05;3.50;;;1.10;;
66521;SDS011;53349;53.538;8.584;2024-01-15T14:28:33;5.57;;;0.68;;
66521;SDS011;53349;53.538;8.584;2024-01-15T14:30:58;4.13;;;1.10;;
66521;SDS011;53349;53.538;8.584;2024-01-15T14:33:26;4.90;;;0.80;;
66521;SDS011;53349;53.538;8.584;2024-01-15T14:35:51;6.78;;;0.98;;
66521;SDS011;53349;53.538;8.584;2024-01-15T14:38:17;2.47;;;0.50;;
66521;SDS011;53349;53.538;8.584;2024-01-15T14:40:47;4.60;;;0.68;;
66521;SDS011;53349;53.538;8.584;2024-01-15T14:43:17;8.18;;;0.70;;
66521;SDS011;53349;53.538;8.584;2024-01-15T14:45:42;4.40;;;0.40;;